Montgomery, New York
Current Conditions -  °F | °C
As of 6:54 PM on Thursday 18 Dec 2014 (Local Time) from KMGJ Reporting Station
Overcast Overcast  
Wind Chill: 36°   Ceiling: 2700
Heat Index: 36°   Visibility: 10mi
Dew Point: 27°   Wind: 0mph
Humidity: 70%   Direction: NA
Pressure: 29.95"   Gusts: NA
Location:  41.53°N, 74.24°W
Report Text: KMGJ 182354Z AUTO 00000KT 10SM OVC027 02/M03 A2995 RMK AO2 SLP146 T00221028 10044 20022 50000 TSNO
Loading
Personal Weather Stations






























Interactive Weather Map New forecast layout! Learn more

10-Day Weather Forecast

Advertisements
Track Severe Weather on mobile